createdAt,value
2022-11-10T00:00:09.929Z,91.70
2022-11-10T00:08:34.143Z,91.40
2022-11-10T00:17:04.847Z,91.40
2022-11-10T00:25:30.112Z,91.50
2022-11-10T00:33:56.831Z,91.30
2022-11-10T00:42:20.661Z,91.90
2022-11-10T00:50:47.358Z,91.70
2022-11-10T00:59:11.281Z,91.60
2022-11-10T01:07:38.296Z,91.50
2022-11-10T01:16:07.365Z,91.60
2022-11-10T01:24:34.091Z,91.70
2022-11-10T01:32:58.652Z,91.50
2022-11-10T01:41:25.641Z,91.50
2022-11-10T01:49:49.807Z,91.60
2022-11-10T01:58:19.338Z,91.70
2022-11-10T02:06:46.595Z,91.70
2022-11-10T02:15:18.065Z,92.00
2022-11-10T02:23:52.512Z,92.40
2022-11-10T02:32:16.244Z,92.90
2022-11-10T02:40:42.486Z,92.60
2022-11-10T02:49:08.243Z,92.70
2022-11-10T02:57:34.808Z,92.80
2022-11-10T03:05:58.764Z,93.70
2022-11-10T03:14:25.601Z,93.60
2022-11-10T03:22:49.690Z,93.50
2022-11-10T03:31:16.293Z,93.50
2022-11-10T03:39:40.273Z,93.60
2022-11-10T03:48:06.854Z,92.70
2022-11-10T03:56:31.047Z,92.80
2022-11-10T04:05:09.550Z,93.30
2022-11-10T04:13:45.922Z,93.30
2022-11-10T04:22:32.418Z,92.60
2022-11-10T04:30:56.333Z,92.50
2022-11-10T04:39:22.449Z,93.00
2022-11-10T04:47:46.440Z,92.60
2022-11-10T04:56:16.486Z,92.10
2022-11-10T05:04:40.353Z,92.00
2022-11-10T05:13:07.516Z,91.80
2022-11-10T05:21:31.803Z,91.60
2022-11-10T05:29:58.457Z,91.40
2022-11-10T05:38:22.422Z,91.30
2022-11-10T05:46:52.109Z,91.80
2022-11-10T05:55:19.403Z,92.20
2022-11-10T06:03:45.948Z,92.00
2022-11-10T06:12:11.001Z,92.10
2022-11-10T06:20:37.499Z,91.90
2022-11-10T06:29:01.633Z,92.50
2022-11-10T06:37:27.976Z,92.70
2022-11-10T06:45:52.145Z,92.20
2022-11-10T06:54:18.914Z,93.10
2022-11-10T07:02:42.750Z,92.30
2022-11-10T07:11:09.719Z,91.90
2022-11-10T07:19:33.776Z,91.10
2022-11-10T07:28:02.788Z,90.90
2022-11-10T07:36:29.131Z,90.20
2022-11-10T07:44:55.838Z,89.50
2022-11-10T07:53:23.141Z,87.90
2022-11-10T08:01:50.148Z,86.40
2022-11-10T08:10:14.404Z,86.00
2022-11-10T08:18:40.909Z,86.70
2022-11-10T08:27:05.124Z,74.00
2022-11-10T08:35:34.107Z,60.40
2022-11-10T08:43:58.044Z,53.60
2022-11-10T08:52:24.559Z,51.10
2022-11-10T09:00:48.743Z,52.60
2022-11-10T09:09:15.434Z,57.30
2022-11-10T09:17:39.583Z,53.40
2022-11-10T09:26:08.858Z,48.80
2022-11-10T09:34:32.503Z,48.50
2022-11-10T09:43:02.992Z,47.20
2022-11-10T09:51:29.581Z,42.80
2022-11-10T09:59:56.730Z,45.10
2022-11-10T10:08:34.153Z,54.20
2022-11-10T10:17:07.351Z,60.40
2022-11-10T10:25:31.433Z,66.80
2022-11-10T10:33:58.762Z,70.20
2022-11-10T10:42:33.320Z,72.30
2022-11-10T10:51:00.041Z,74.30
2022-11-10T10:59:26.490Z,72.40
2022-11-10T11:08:01.965Z,70.20
2022-11-10T11:16:26.286Z,68.20
2022-11-10T11:24:57.441Z,66.50
2022-11-10T11:33:41.099Z,64.60
2022-11-10T11:42:11.110Z,64.30
2022-11-10T11:50:44.077Z,63.60
2022-11-10T11:59:24.185Z,62.10
2022-11-10T12:07:56.649Z,62.70
2022-11-10T12:16:28.981Z,62.80
2022-11-10T12:25:07.347Z,63.40
2022-11-10T12:33:41.384Z,62.00
2022-11-10T12:42:07.446Z,62.70
2022-11-10T12:50:56.259Z,63.80
2022-11-10T12:59:32.957Z,63.80
2022-11-10T13:08:21.987Z,65.30
2022-11-10T13:16:54.386Z,65.90
2022-11-10T13:25:48.542Z,66.20
2022-11-10T13:34:30.908Z,66.40
2022-11-10T13:43:15.784Z,66.60
2022-11-10T13:51:46.766Z,67.10
2022-11-10T14:00:28.132Z,67.20
2022-11-10T14:08:57.790Z,68.20
2022-11-10T14:17:26.018Z,68.60
2022-11-10T14:25:58.737Z,69.00
2022-11-10T14:34:23.915Z,70.30
2022-11-10T14:42:50.749Z,71.50
2022-11-10T14:51:18.026Z,72.50
2022-11-10T14:59:44.837Z,73.70
2022-11-10T15:08:10.349Z,74.60
2022-11-10T15:16:38.838Z,75.20
2022-11-10T15:25:04.249Z,75.40
2022-11-10T15:33:34.168Z,75.80
2022-11-10T15:42:01.838Z,76.30
2022-11-10T15:50:28.193Z,76.50
2022-11-10T15:58:59.062Z,76.50
2022-11-10T16:07:27.946Z,76.80
2022-11-10T16:15:52.063Z,76.80
2022-11-10T16:24:18.594Z,77.00
2022-11-10T16:32:42.748Z,77.10
2022-11-10T16:41:16.554Z,77.30
2022-11-10T16:49:49.349Z,77.40
2022-11-10T16:58:16.204Z,77.10
2022-11-10T17:06:40.722Z,77.00
2022-11-10T17:15:07.666Z,77.60
2022-11-10T17:23:31.715Z,77.70
2022-11-10T17:31:58.796Z,77.70
2022-11-10T17:40:24.963Z,77.90
2022-11-10T17:48:54.743Z,78.20
2022-11-10T17:57:18.842Z,78.10
2022-11-10T18:05:45.629Z,78.30
2022-11-10T18:14:09.412Z,78.60
2022-11-10T18:22:35.858Z,78.60
2022-11-10T18:30:59.969Z,78.80
2022-11-10T18:39:26.477Z,78.90
2022-11-10T18:47:53.158Z,79.00
2022-11-10T18:56:19.565Z,79.40
2022-11-10T19:04:43.320Z,79.60
2022-11-10T19:13:10.694Z,79.90
2022-11-10T19:21:34.873Z,80.50
2022-11-10T19:30:01.325Z,80.70
2022-11-10T19:38:25.278Z,81.50
2022-11-10T19:46:51.740Z,81.70
2022-11-10T19:55:15.437Z,81.60
2022-11-10T20:03:42.265Z,81.70
2022-11-10T20:12:06.830Z,82.30
2022-11-10T20:20:33.586Z,82.30
2022-11-10T20:28:57.618Z,83.00
2022-11-10T20:37:24.386Z,82.10
2022-11-10T20:45:47.938Z,82.30
2022-11-10T20:54:15.335Z,82.50
2022-11-10T21:02:39.103Z,82.80
2022-11-10T21:11:09.500Z,83.40
2022-11-10T21:19:36.332Z,83.60
2022-11-10T21:28:05.254Z,84.00
2022-11-10T21:36:29.952Z,84.20
2022-11-10T21:44:56.493Z,84.30
2022-11-10T21:53:20.678Z,84.60
2022-11-10T22:01:47.624Z,85.50
2022-11-10T22:10:26.568Z,86.60
2022-11-10T22:18:54.678Z,86.70
2022-11-10T22:27:18.276Z,86.80
2022-11-10T22:35:47.914Z,87.40
2022-11-10T22:44:14.676Z,87.70
2022-11-10T22:52:41.098Z,87.60
2022-11-10T23:01:09.627Z,87.70
2022-11-10T23:09:36.265Z,87.80
2022-11-10T23:18:06.318Z,87.40
2022-11-10T23:26:34.147Z,87.10
2022-11-10T23:34:58.236Z,87.30
2022-11-10T23:43:24.674Z,87.20
2022-11-10T23:51:49.071Z,86.70
